sensor_id;sensor_type;location;lat;lon;timestamp;P1;durP1;ratioP1;P2;durP2;ratioP2
24325;SDS011;12448;45.532;5.290;2023-08-06T00:01:31;1.90;;;1.20;;
24325;SDS011;12448;45.532;5.290;2023-08-06T00:03:56;2.65;;;1.10;;
24325;SDS011;12448;45.532;5.290;2023-08-06T00:06:28;2.05;;;1.00;;
24325;SDS011;12448;45.532;5.290;2023-08-06T00:09:00;2.05;;;1.00;;
24325;SDS011;12448;45.532;5.290;2023-08-06T00:11:28;1.30;;;1.10;;
24325;SDS011;12448;45.532;5.290;2023-08-06T00:13:54;2.30;;;1.05;;
24325;SDS011;12448;45.532;5.290;2023-08-06T00:16:20;1.83;;;1.20;;
24325;SDS011;12448;45.532;5.290;2023-08-06T00:18:45;2.65;;;1.00;;
24325;SDS011;12448;45.532;5.290;2023-08-06T00:21:11;1.67;;;0.95;;
24325;SDS011;12448;45.532;5.290;2023-08-06T00:23:37;1.63;;;1.02;;
24325;SDS011;12448;45.532;5.290;2023-08-06T00:26:03;1.67;;;0.80;;
24325;SDS011;12448;45.532;5.290;2023-08-06T00:28:28;2.25;;;0.70;;
24325;SDS011;12448;45.532;5.290;2023-08-06T00:30:54;2.03;;;0.82;;
24325;SDS011;12448;45.532;5.290;2023-08-06T00:33:23;2.33;;;1.10;;
24325;SDS011;12448;45.532;5.290;2023-08-06T00:36:19;2.38;;;1.20;;
24325;SDS011;12448;45.532;5.290;2023-08-06T00:38:47;1.92;;;1.20;;
24325;SDS011;12448;45.532;5.290;2023-08-06T00:41:13;1.85;;;1.10;;
24325;SDS011;12448;45.532;5.290;2023-08-06T00:43:39;3.78;;;1.30;;
24325;SDS011;12448;45.532;5.290;2023-08-06T00:46:08;2.80;;;1.38;;
24325;SDS011;12448;45.532;5.290;2023-08-06T00:48:42;2.83;;;1.47;;
24325;SDS011;12448;45.532;5.290;2023-08-06T00:51:16;3.45;;;1.25;;
24325;SDS011;12448;45.532;5.290;2023-08-06T00:53:42;2.55;;;1.15;;
24325;SDS011;12448;45.532;5.290;2023-08-06T00:56:08;2.28;;;1.10;;
24325;SDS011;12448;45.532;5.290;2023-08-06T00:58:34;3.35;;;1.17;;
24325;SDS011;12448;45.532;5.290;2023-08-06T01:01:07;1.70;;;1.05;;
24325;SDS011;12448;45.532;5.290;2023-08-06T01:03:38;1.00;;;0.80;;
24325;SDS011;12448;45.532;5.290;2023-08-06T01:06:04;1.63;;;0.82;;
24325;SDS011;12448;45.532;5.290;2023-08-06T01:14:06;1.25;;;0.93;;
24325;SDS011;12448;45.532;5.290;2023-08-06T01:16:41;2.40;;;0.90;;
24325;SDS011;12448;45.532;5.290;2023-08-06T01:19:19;1.23;;;0.88;;
24325;SDS011;12448;45.532;5.290;2023-08-06T01:21:46;1.60;;;0.90;;
24325;SDS011;12448;45.532;5.290;2023-08-06T01:24:12;2.25;;;0.95;;
24325;SDS011;12448;45.532;5.290;2023-08-06T01:26:50;0.80;;;0.63;;
24325;SDS011;12448;45.532;5.290;2023-08-06T01:29:42;2.50;;;0.80;;
24325;SDS011;12448;45.532;5.290;2023-08-06T01:32:15;3.28;;;1.25;;
24325;SDS011;12448;45.532;5.290;2023-08-06T01:34:42;2.10;;;0.90;;
24325;SDS011;12448;45.532;5.290;2023-08-06T01:37:09;1.60;;;1.00;;
24325;SDS011;12448;45.532;5.290;2023-08-06T01:39:36;2.75;;;0.93;;
24325;SDS011;12448;45.532;5.290;2023-08-06T01:42:05;1.27;;;0.75;;
24325;SDS011;12448;45.532;5.290;2023-08-06T01:44:31;1.48;;;0.90;;
24325;SDS011;12448;45.532;5.290;2023-08-06T01:46:57;1.80;;;1.10;;
24325;SDS011;12448;45.532;5.290;2023-08-06T01:49:22;1.02;;;0.80;;
24325;SDS011;12448;45.532;5.290;2023-08-06T01:51:57;3.40;;;0.98;;
24325;SDS011;12448;45.532;5.290;2023-08-06T01:54:26;3.80;;;1.10;;
24325;SDS011;12448;45.532;5.290;2023-08-06T01:56:52;2.40;;;1.17;;
24325;SDS011;12448;45.532;5.290;2023-08-06T01:59:18;1.83;;;0.90;;
24325;SDS011;12448;45.532;5.290;2023-08-06T02:01:44;1.55;;;0.73;;
24325;SDS011;12448;45.532;5.290;2023-08-06T02:04:10;1.45;;;0.70;;
24325;SDS011;12448;45.532;5.290;2023-08-06T02:06:36;3.45;;;1.20;;
24325;SDS011;12448;45.532;5.290;2023-08-06T02:09:02;3.33;;;1.10;;
24325;SDS011;12448;45.532;5.290;2023-08-06T02:11:28;1.65;;;1.00;;
24325;SDS011;12448;45.532;5.290;2023-08-06T02:13:53;2.45;;;0.90;;
24325;SDS011;12448;45.532;5.290;2023-08-06T02:16:19;2.25;;;0.98;;
24325;SDS011;12448;45.532;5.290;2023-08-06T02:18:47;1.63;;;0.82;;
24325;SDS011;12448;45.532;5.290;2023-08-06T02:21:13;1.88;;;0.80;;
24325;SDS011;12448;45.532;5.290;2023-08-06T02:23:42;1.50;;;0.95;;
24325;SDS011;12448;45.532;5.290;2023-08-06T02:26:07;1.55;;;1.00;;
24325;SDS011;12448;45.532;5.290;2023-08-06T02:28:33;2.15;;;0.90;;
24325;SDS011;12448;45.532;5.290;2023-08-06T02:30:59;2.60;;;1.35;;
24325;SDS011;12448;45.532;5.290;2023-08-06T02:33:25;4.30;;;1.42;;
24325;SDS011;12448;45.532;5.290;2023-08-06T02:35:51;2.85;;;0.98;;
24325;SDS011;12448;45.532;5.290;2023-08-06T02:38:26;1.45;;;0.93;;
24325;SDS011;12448;45.532;5.290;2023-08-06T02:40:53;4.32;;;0.90;;
24325;SDS011;12448;45.532;5.290;2023-08-06T02:43:19;2.05;;;0.90;;
24325;SDS011;12448;45.532;5.290;2023-08-06T02:45:47;3.15;;;1.10;;
24325;SDS011;12448;45.532;5.290;2023-08-06T02:48:13;2.30;;;1.10;;
24325;SDS011;12448;45.532;5.290;2023-08-06T02:53:41;3.78;;;1.23;;
24325;SDS011;12448;45.532;5.290;2023-08-06T02:56:06;3.22;;;1.20;;
24325;SDS011;12448;45.532;5.290;2023-08-06T02:58:32;6.28;;;1.40;;
24325;SDS011;12448;45.532;5.290;2023-08-06T03:01:04;7.07;;;1.63;;
24325;SDS011;12448;45.532;5.290;2023-08-06T03:03:33;6.55;;;1.70;;
24325;SDS011;12448;45.532;5.290;2023-08-06T03:05:59;9.55;;;1.77;;
24325;SDS011;12448;45.532;5.290;2023-08-06T03:08:26;11.75;;;1.75;;
24325;SDS011;12448;45.532;5.290;2023-08-06T03:10:51;8.82;;;1.88;;
24325;SDS011;12448;45.532;5.290;2023-08-06T03:13:18;8.85;;;1.50;;
24325;SDS011;12448;45.532;5.290;2023-08-06T03:15:53;12.85;;;2.05;;
24325;SDS011;12448;45.532;5.290;2023-08-06T03:18:20;11.73;;;2.03;;
24325;SDS011;12448;45.532;5.290;2023-08-06T03:20:47;6.95;;;1.80;;
24325;SDS011;12448;45.532;5.290;2023-08-06T03:23:13;8.57;;;1.70;;
24325;SDS011;12448;45.532;5.290;2023-08-06T03:25:39;12.38;;;2.38;;
24325;SDS011;12448;45.532;5.290;2023-08-06T03:28:04;9.82;;;2.10;;
24325;SDS011;12448;45.532;5.290;2023-08-06T03:30:30;13.10;;;2.35;;
24325;SDS011;12448;45.532;5.290;2023-08-06T03:32:55;6.25;;;1.58;;
24325;SDS011;12448;45.532;5.290;2023-08-06T03:35:21;10.75;;;2.17;;
24325;SDS011;12448;45.532;5.290;2023-08-06T03:37:47;8.10;;;1.92;;
24325;SDS011;12448;45.532;5.290;2023-08-06T03:40:13;15.98;;;2.40;;
24325;SDS011;12448;45.532;5.290;2023-08-06T03:42:39;14.65;;;2.38;;
24325;SDS011;12448;45.532;5.290;2023-08-06T03:45:05;9.30;;;2.28;;
24325;SDS011;12448;45.532;5.290;2023-08-06T03:47:31;17.80;;;3.72;;
24325;SDS011;12448;45.532;5.290;2023-08-06T03:49:56;15.13;;;2.53;;
24325;SDS011;12448;45.532;5.290;2023-08-06T03:52:22;13.15;;;2.25;;
24325;SDS011;12448;45.532;5.290;2023-08-06T03:54:48;13.93;;;2.58;;
24325;SDS011;12448;45.532;5.290;2023-08-06T03:57:13;12.18;;;2.85;;
24325;SDS011;12448;45.532;5.290;2023-08-06T03:59:39;15.02;;;2.60;;
24325;SDS011;12448;45.532;5.290;2023-08-06T04:02:04;11.50;;;2.28;;
24325;SDS011;12448;45.532;5.290;2023-08-06T04:04:30;10.25;;;2.22;;
24325;SDS011;12448;45.532;5.290;2023-08-06T04:06:56;13.88;;;2.03;;
24325;SDS011;12448;45.532;5.290;2023-08-06T04:09:22;15.05;;;2.72;;
24325;SDS011;12448;45.532;5.290;2023-08-06T04:11:47;15.68;;;3.03;;
24325;SDS011;12448;45.532;5.290;2023-08-06T04:14:13;12.38;;;2.53;;
24325;SDS011;12448;45.532;5.290;2023-08-06T04:16:38;13.65;;;2.30;;
24325;SDS011;12448;45.532;5.290;2023-08-06T04:19:04;12.18;;;2.45;;
24325;SDS011;12448;45.532;5.290;2023-08-06T04:21:30;9.70;;;2.13;;
24325;SDS011;12448;45.532;5.290;2023-08-06T04:23:56;11.05;;;2.33;;
24325;SDS011;12448;45.532;5.290;2023-08-06T04:26:22;13.13;;;2.33;;
24325;SDS011;12448;45.532;5.290;2023-08-06T04:28:53;16.60;;;2.83;;
24325;SDS011;12448;45.532;5.290;2023-08-06T04:31:19;12.98;;;2.13;;
24325;SDS011;12448;45.532;5.290;2023-08-06T04:33:45;8.32;;;1.80;;
24325;SDS011;12448;45.532;5.290;2023-08-06T04:36:11;14.38;;;2.10;;
24325;SDS011;12448;45.532;5.290;2023-08-06T04:38:37;10.50;;;2.40;;
24325;SDS011;12448;45.532;5.290;2023-08-06T04:41:03;14.98;;;2.55;;
24325;SDS011;12448;45.532;5.290;2023-08-06T04:43:29;14.90;;;2.40;;
24325;SDS011;12448;45.532;5.290;2023-08-06T04:45:55;16.17;;;2.70;;
24325;SDS011;12448;45.532;5.290;2023-08-06T04:48:21;12.32;;;2.50;;
24325;SDS011;12448;45.532;5.290;2023-08-06T04:50:48;18.20;;;3.03;;
24325;SDS011;12448;45.532;5.290;2023-08-06T04:53:15;15.73;;;2.58;;
24325;SDS011;12448;45.532;5.290;2023-08-06T04:55:41;12.02;;;2.65;;
24325;SDS011;12448;45.532;5.290;2023-08-06T04:58:08;13.43;;;2.45;;
24325;SDS011;12448;45.532;5.290;2023-08-06T05:00:35;12.88;;;2.42;;
24325;SDS011;12448;45.532;5.290;2023-08-06T05:03:01;12.00;;;2.17;;
24325;SDS011;12448;45.532;5.290;2023-08-06T05:05:27;12.98;;;2.25;;
24325;SDS011;12448;45.532;5.290;2023-08-06T05:07:54;11.07;;;2.08;;
24325;SDS011;12448;45.532;5.290;2023-08-06T05:10:21;13.10;;;2.65;;
24325;SDS011;12448;45.532;5.290;2023-08-06T05:12:46;16.50;;;2.58;;
24325;SDS011;12448;45.532;5.290;2023-08-06T05:15:12;15.40;;;2.70;;
24325;SDS011;12448;45.532;5.290;2023-08-06T05:17:38;11.13;;;2.72;;
24325;SDS011;12448;45.532;5.290;2023-08-06T05:20:03;14.52;;;2.65;;
24325;SDS011;12448;45.532;5.290;2023-08-06T05:22:30;9.65;;;1.88;;
24325;SDS011;12448;45.532;5.290;2023-08-06T05:24:55;10.73;;;1.63;;
24325;SDS011;12448;45.532;5.290;2023-08-06T05:27:21;15.88;;;2.55;;
24325;SDS011;12448;45.532;5.290;2023-08-06T05:29:47;8.85;;;1.60;;
24325;SDS011;12448;45.532;5.290;2023-08-06T05:32:13;7.15;;;1.60;;
24325;SDS011;12448;45.532;5.290;2023-08-06T05:34:39;9.13;;;1.35;;
24325;SDS011;12448;45.532;5.290;2023-08-06T05:37:06;6.85;;;1.40;;
24325;SDS011;12448;45.532;5.290;2023-08-06T05:39:32;4.40;;;1.20;;
24325;SDS011;12448;45.532;5.290;2023-08-06T05:41:57;12.93;;;1.70;;
24325;SDS011;12448;45.532;5.290;2023-08-06T05:44:23;9.85;;;1.58;;
24325;SDS011;12448;45.532;5.290;2023-08-06T05:46:49;9.00;;;1.15;;
24325;SDS011;12448;45.532;5.290;2023-08-06T05:49:15;7.82;;;1.95;;
24325;SDS011;12448;45.532;5.290;2023-08-06T05:51:41;7.22;;;1.58;;
24325;SDS011;12448;45.532;5.290;2023-08-06T05:54:06;4.88;;;1.48;;
24325;SDS011;12448;45.532;5.290;2023-08-06T05:56:32;4.50;;;1.10;;
24325;SDS011;12448;45.532;5.290;2023-08-06T05:58:58;10.77;;;1.70;;
24325;SDS011;12448;45.532;5.290;2023-08-06T06:01:24;7.22;;;1.40;;
24325;SDS011;12448;45.532;5.290;2023-08-06T06:03:52;8.15;;;2.17;;
24325;SDS011;12448;45.532;5.290;2023-08-06T06:06:24;16.10;;;2.50;;
24325;SDS011;12448;45.532;5.290;2023-08-06T06:08:50;5.43;;;1.20;;
24325;SDS011;12448;45.532;5.290;2023-08-06T06:11:16;5.82;;;1.35;;
24325;SDS011;12448;45.532;5.290;2023-08-06T06:13:41;9.38;;;1.88;;
24325;SDS011;12448;45.532;5.290;2023-08-06T06:16:07;9.50;;;1.67;;
24325;SDS011;12448;45.532;5.290;2023-08-06T06:18:33;7.38;;;1.70;;
24325;SDS011;12448;45.532;5.290;2023-08-06T06:20:58;8.15;;;1.45;;
24325;SDS011;12448;45.532;5.290;2023-08-06T06:23:24;8.13;;;1.48;;
24325;SDS011;12448;45.532;5.290;2023-08-06T06:25:53;5.88;;;1.35;;
24325;SDS011;12448;45.532;5.290;2023-08-06T06:28:18;5.88;;;1.30;;
24325;SDS011;12448;45.532;5.290;2023-08-06T06:30:44;5.07;;;1.60;;
24325;SDS011;12448;45.532;5.290;2023-08-06T06:33:10;5.07;;;1.80;;
24325;SDS011;12448;45.532;5.290;2023-08-06T06:35:36;5.28;;;1.20;;
24325;SDS011;12448;45.532;5.290;2023-08-06T06:38:02;8.07;;;1.80;;
24325;SDS011;12448;45.532;5.290;2023-08-06T06:40:28;7.68;;;1.42;;
24325;SDS011;12448;45.532;5.290;2023-08-06T06:42:53;8.77;;;1.98;;
24325;SDS011;12448;45.532;5.290;2023-08-06T06:45:19;8.40;;;1.40;;
24325;SDS011;12448;45.532;5.290;2023-08-06T06:47:45;8.02;;;1.73;;
24325;SDS011;12448;45.532;5.290;2023-08-06T06:50:10;7.45;;;1.75;;
24325;SDS011;12448;45.532;5.290;2023-08-06T06:52:36;9.50;;;1.27;;
24325;SDS011;12448;45.532;5.290;2023-08-06T06:55:02;9.48;;;1.45;;
24325;SDS011;12448;45.532;5.290;2023-08-06T06:57:28;6.53;;;1.20;;
24325;SDS011;12448;45.532;5.290;2023-08-06T06:59:54;5.05;;;1.48;;
24325;SDS011;12448;45.532;5.290;2023-08-06T07:02:20;5.38;;;1.33;;
24325;SDS011;12448;45.532;5.290;2023-08-06T07:04:45;6.20;;;1.67;;
24325;SDS011;12448;45.532;5.290;2023-08-06T07:07:11;5.10;;;1.30;;
24325;SDS011;12448;45.532;5.290;2023-08-06T07:09:37;3.13;;;1.10;;
24325;SDS011;12448;45.532;5.290;2023-08-06T07:12:03;6.45;;;1.35;;
24325;SDS011;12448;45.532;5.290;2023-08-06T07:14:29;8.65;;;1.60;;
24325;SDS011;12448;45.532;5.290;2023-08-06T07:16:55;3.45;;;1.10;;
24325;SDS011;12448;45.532;5.290;2023-08-06T07:19:20;6.10;;;1.25;;
24325;SDS011;12448;45.532;5.290;2023-08-06T07:21:46;8.35;;;1.58;;
24325;SDS011;12448;45.532;5.290;2023-08-06T07:24:12;3.22;;;1.15;;
24325;SDS011;12448;45.532;5.290;2023-08-06T07:26:38;5.65;;;1.25;;
24325;SDS011;12448;45.532;5.290;2023-08-06T07:29:03;6.95;;;1.27;;
24325;SDS011;12448;45.532;5.290;2023-08-06T07:31:29;5.22;;;1.20;;
24325;SDS011;12448;45.532;5.290;2023-08-06T07:33:54;5.47;;;1.20;;
24325;SDS011;12448;45.532;5.290;2023-08-06T07:36:20;3.75;;;1.13;;
24325;SDS011;12448;45.532;5.290;2023-08-06T07:38:46;6.28;;;1.30;;
24325;SDS011;12448;45.532;5.290;2023-08-06T07:41:14;7.60;;;1.13;;
24325;SDS011;12448;45.532;5.290;2023-08-06T07:43:39;6.70;;;1.20;;
24325;SDS011;12448;45.532;5.290;2023-08-06T07:46:05;5.43;;;1.42;;
24325;SDS011;12448;45.532;5.290;2023-08-06T07:48:31;3.05;;;0.95;;
24325;SDS011;12448;45.532;5.290;2023-08-06T07:50:57;3.40;;;0.98;;
24325;SDS011;12448;45.532;5.290;2023-08-06T07:53:23;3.55;;;0.85;;
24325;SDS011;12448;45.532;5.290;2023-08-06T07:55:51;2.13;;;0.90;;
24325;SDS011;12448;45.532;5.290;2023-08-06T07:58:19;2.80;;;0.80;;
24325;SDS011;12448;45.532;5.290;2023-08-06T08:00:45;3.80;;;0.70;;
24325;SDS011;12448;45.532;5.290;2023-08-06T08:03:14;2.42;;;1.10;;
24325;SDS011;12448;45.532;5.290;2023-08-06T08:05:41;3.92;;;1.00;;
24325;SDS011;12448;45.532;5.290;2023-08-06T08:08:07;5.90;;;1.10;;
24325;SDS011;12448;45.532;5.290;2023-08-06T08:10:33;4.78;;;1.15;;
24325;SDS011;12448;45.532;5.290;2023-08-06T08:13:00;3.45;;;1.02;;
24325;SDS011;12448;45.532;5.290;2023-08-06T08:15:28;4.32;;;1.20;;
24325;SDS011;12448;45.532;5.290;2023-08-06T08:17:54;5.43;;;1.00;;
24325;SDS011;12448;45.532;5.290;2023-08-06T08:20:20;5.28;;;1.20;;
24325;SDS011;12448;45.532;5.290;2023-08-06T08:22:46;2.50;;;1.02;;
24325;SDS011;12448;45.532;5.290;2023-08-06T08:25:12;6.72;;;1.73;;
24325;SDS011;12448;45.532;5.290;2023-08-06T08:27:38;3.47;;;1.38;;
24325;SDS011;12448;45.532;5.290;2023-08-06T08:30:04;3.50;;;1.00;;
24325;SDS011;12448;45.532;5.290;2023-08-06T08:32:30;3.85;;;0.90;;
24325;SDS011;12448;45.532;5.290;2023-08-06T08:34:56;1.88;;;0.88;;
24325;SDS011;12448;45.532;5.290;2023-08-06T08:37:22;2.45;;;0.85;;
24325;SDS011;12448;45.532;5.290;2023-08-06T08:39:48;7.28;;;1.13;;
24325;SDS011;12448;45.532;5.290;2023-08-06T08:42:17;2.83;;;0.95;;
24325;SDS011;12448;45.532;5.290;2023-08-06T08:44:43;4.20;;;1.20;;
24325;SDS011;12448;45.532;5.290;2023-08-06T08:47:10;4.82;;;0.85;;
24325;SDS011;12448;45.532;5.290;2023-08-06T08:49:36;7.85;;;1.20;;
24325;SDS011;12448;45.532;5.290;2023-08-06T08:52:03;4.75;;;1.17;;
24325;SDS011;12448;45.532;5.290;2023-08-06T08:54:38;5.22;;;1.13;;
24325;SDS011;12448;45.532;5.290;2023-08-06T08:57:05;3.70;;;0.98;;
24325;SDS011;12448;45.532;5.290;2023-08-06T08:59:32;3.03;;;0.90;;
24325;SDS011;12448;45.532;5.290;2023-08-06T09:02:01;5.28;;;1.20;;
24325;SDS011;12448;45.532;5.290;2023-08-06T09:04:28;3.25;;;0.98;;
24325;SDS011;12448;45.532;5.290;2023-08-06T09:06:57;3.60;;;1.02;;
24325;SDS011;12448;45.532;5.290;2023-08-06T09:09:28;6.57;;;1.25;;
24325;SDS011;12448;45.532;5.290;2023-08-06T09:12:00;4.93;;;1.45;;
24325;SDS011;12448;45.532;5.290;2023-08-06T09:14:27;2.58;;;0.73;;
24325;SDS011;12448;45.532;5.290;2023-08-06T09:16:53;5.50;;;1.08;;
24325;SDS011;12448;45.532;5.290;2023-08-06T09:19:20;3.47;;;0.88;;
24325;SDS011;12448;45.532;5.290;2023-08-06T09:21:50;6.65;;;0.90;;
24325;SDS011;12448;45.532;5.290;2023-08-06T09:24:16;4.47;;;0.85;;
24325;SDS011;12448;45.532;5.290;2023-08-06T09:26:45;3.65;;;0.90;;
24325;SDS011;12448;45.532;5.290;2023-08-06T09:29:11;5.78;;;1.23;;
24325;SDS011;12448;45.532;5.290;2023-08-06T09:31:41;3.97;;;0.93;;
24325;SDS011;12448;45.532;5.290;2023-08-06T09:36:48;2.40;;;0.90;;
24325;SDS011;12448;45.532;5.290;2023-08-06T09:39:24;3.38;;;1.00;;
24325;SDS011;12448;45.532;5.290;2023-08-06T09:41:58;3.00;;;0.82;;
24325;SDS011;12448;45.532;5.290;2023-08-06T09:44:25;4.15;;;0.90;;
24325;SDS011;12448;45.532;5.290;2023-08-06T09:46:57;2.95;;;0.80;;
24325;SDS011;12448;45.532;5.290;2023-08-06T09:52:01;2.63;;;0.90;;
24325;SDS011;12448;45.532;5.290;2023-08-06T09:54:27;3.55;;;0.93;;
24325;SDS011;12448;45.532;5.290;2023-08-06T09:56:55;2.83;;;1.10;;
24325;SDS011;12448;45.532;5.290;2023-08-06T09:59:24;4.50;;;1.55;;
24325;SDS011;12448;45.532;5.290;2023-08-06T10:01:50;3.55;;;1.17;;
24325;SDS011;12448;45.532;5.290;2023-08-06T10:04:16;1.63;;;0.85;;
24325;SDS011;12448;45.532;5.290;2023-08-06T10:06:43;2.75;;;1.02;;
24325;SDS011;12448;45.532;5.290;2023-08-06T10:09:11;6.30;;;1.10;;
24325;SDS011;12448;45.532;5.290;2023-08-06T10:11:37;3.65;;;1.17;;
24325;SDS011;12448;45.532;5.290;2023-08-06T10:14:06;5.78;;;1.45;;
24325;SDS011;12448;45.532;5.290;2023-08-06T10:16:38;4.63;;;1.27;;
24325;SDS011;12448;45.532;5.290;2023-08-06T10:19:05;6.90;;;2.00;;
24325;SDS011;12448;45.532;5.290;2023-08-06T10:21:34;4.88;;;1.05;;
24325;SDS011;12448;45.532;5.290;2023-08-06T10:24:00;4.15;;;1.15;;
24325;SDS011;12448;45.532;5.290;2023-08-06T10:26:27;5.53;;;1.33;;
24325;SDS011;12448;45.532;5.290;2023-08-06T10:28:54;2.85;;;0.98;;
24325;SDS011;12448;45.532;5.290;2023-08-06T10:31:20;2.30;;;0.93;;
24325;SDS011;12448;45.532;5.290;2023-08-06T10:34:06;3.40;;;1.30;;
24325;SDS011;12448;45.532;5.290;2023-08-06T10:36:32;5.18;;;1.17;;
24325;SDS011;12448;45.532;5.290;2023-08-06T10:38:58;5.70;;;1.00;;
24325;SDS011;12448;45.532;5.290;2023-08-06T10:41:29;8.07;;;1.13;;
24325;SDS011;12448;45.532;5.290;2023-08-06T10:44:05;5.63;;;1.05;;
24325;SDS011;12448;45.532;5.290;2023-08-06T10:46:34;3.70;;;0.80;;
24325;SDS011;12448;45.532;5.290;2023-08-06T10:49:00;4.32;;;1.30;;
24325;SDS011;12448;45.532;5.290;2023-08-06T10:51:27;2.25;;;0.80;;
24325;SDS011;12448;45.532;5.290;2023-08-06T10:53:53;6.15;;;1.10;;
24325;SDS011;12448;45.532;5.290;2023-08-06T10:56:23;3.40;;;1.00;;
24325;SDS011;12448;45.532;5.290;2023-08-06T10:58:55;3.97;;;1.30;;
24325;SDS011;12448;45.532;5.290;2023-08-06T11:01:26;5.15;;;1.20;;
24325;SDS011;12448;45.532;5.290;2023-08-06T11:03:57;4.03;;;1.10;;
24325;SDS011;12448;45.532;5.290;2023-08-06T11:06:51;6.88;;;1.10;;
24325;SDS011;12448;45.532;5.290;2023-08-06T11:09:50;5.97;;;1.50;;
24325;SDS011;12448;45.532;5.290;2023-08-06T11:12:21;3.05;;;1.25;;
24325;SDS011;12448;45.532;5.290;2023-08-06T11:14:53;4.22;;;1.15;;
24325;SDS011;12448;45.532;5.290;2023-08-06T11:17:22;5.18;;;1.52;;
24325;SDS011;12448;45.532;5.290;2023-08-06T11:19:55;4.60;;;1.30;;
24325;SDS011;12448;45.532;5.290;2023-08-06T11:22:26;3.90;;;1.42;;
24325;SDS011;12448;45.532;5.290;2023-08-06T11:24:55;5.22;;;1.58;;
24325;SDS011;12448;45.532;5.290;2023-08-06T11:27:21;3.13;;;1.23;;
24325;SDS011;12448;45.532;5.290;2023-08-06T11:29:49;5.95;;;1.45;;
24325;SDS011;12448;45.532;5.290;2023-08-06T11:32:15;5.05;;;1.52;;
24325;SDS011;12448;45.532;5.290;2023-08-06T11:34:47;5.40;;;1.52;;
24325;SDS011;12448;45.532;5.290;2023-08-06T11:37:13;5.25;;;1.50;;
24325;SDS011;12448;45.532;5.290;2023-08-06T11:39:38;4.50;;;1.48;;
24325;SDS011;12448;45.532;5.290;2023-08-06T11:42:17;10.02;;;1.35;;
24325;SDS011;12448;45.532;5.290;2023-08-06T11:44:43;3.80;;;1.30;;
24325;SDS011;12448;45.532;5.290;2023-08-06T11:47:13;7.45;;;1.58;;
24325;SDS011;12448;45.532;5.290;2023-08-06T11:49:47;7.40;;;1.52;;
24325;SDS011;12448;45.532;5.290;2023-08-06T11:52:21;3.58;;;1.20;;
24325;SDS011;12448;45.532;5.290;2023-08-06T11:55:09;2.28;;;1.05;;
24325;SDS011;12448;45.532;5.290;2023-08-06T11:57:39;4.10;;;1.38;;
24325;SDS011;12448;45.532;5.290;2023-08-06T12:00:10;3.53;;;1.00;;
24325;SDS011;12448;45.532;5.290;2023-08-06T12:02:44;2.95;;;1.15;;
24325;SDS011;12448;45.532;5.290;2023-08-06T12:05:11;2.40;;;0.90;;
24325;SDS011;12448;45.532;5.290;2023-08-06T12:07:40;2.35;;;0.98;;
24325;SDS011;12448;45.532;5.290;2023-08-06T12:10:10;2.87;;;1.40;;
24325;SDS011;12448;45.532;5.290;2023-08-06T12:12:36;1.75;;;1.05;;
24325;SDS011;12448;45.532;5.290;2023-08-06T12:15:03;4.03;;;1.10;;
24325;SDS011;12448;45.532;5.290;2023-08-06T12:17:31;3.17;;;1.00;;
24325;SDS011;12448;45.532;5.290;2023-08-06T12:19:57;1.52;;;0.88;;
24325;SDS011;12448;45.532;5.290;2023-08-06T12:22:22;3.67;;;1.02;;
24325;SDS011;12448;45.532;5.290;2023-08-06T12:24:48;3.90;;;1.23;;
24325;SDS011;12448;45.532;5.290;2023-08-06T12:27:14;2.78;;;0.80;;
24325;SDS011;12448;45.532;5.290;2023-08-06T12:29:45;5.38;;;1.27;;
24325;SDS011;12448;45.532;5.290;2023-08-06T12:32:12;4.38;;;1.10;;
24325;SDS011;12448;45.532;5.290;2023-08-06T12:34:38;3.55;;;1.10;;
24325;SDS011;12448;45.532;5.290;2023-08-06T12:37:05;3.35;;;0.90;;
24325;SDS011;12448;45.532;5.290;2023-08-06T12:39:32;3.55;;;0.90;;
24325;SDS011;12448;45.532;5.290;2023-08-06T12:41:58;5.45;;;1.00;;
24325;SDS011;12448;45.532;5.290;2023-08-06T12:44:24;1.73;;;0.93;;
24325;SDS011;12448;45.532;5.290;2023-08-06T12:46:50;5.55;;;1.30;;
24325;SDS011;12448;45.532;5.290;2023-08-06T12:49:18;4.03;;;1.20;;
24325;SDS011;12448;45.532;5.290;2023-08-06T12:51:46;2.42;;;1.15;;
24325;SDS011;12448;45.532;5.290;2023-08-06T12:54:12;4.22;;;1.35;;
24325;SDS011;12448;45.532;5.290;2023-08-06T12:56:37;4.18;;;1.17;;
24325;SDS011;12448;45.532;5.290;2023-08-06T12:59:03;3.47;;;1.20;;
24325;SDS011;12448;45.532;5.290;2023-08-06T13:01:29;8.57;;;1.63;;
24325;SDS011;12448;45.532;5.290;2023-08-06T13:03:54;3.50;;;1.40;;
24325;SDS011;12448;45.532;5.290;2023-08-06T13:06:20;2.75;;;1.08;;
24325;SDS011;12448;45.532;5.290;2023-08-06T13:08:45;5.68;;;1.13;;
24325;SDS011;12448;45.532;5.290;2023-08-06T13:11:11;4.45;;;1.30;;
24325;SDS011;12448;45.532;5.290;2023-08-06T13:13:37;4.25;;;1.35;;
24325;SDS011;12448;45.532;5.290;2023-08-06T13:16:02;4.05;;;1.20;;
24325;SDS011;12448;45.532;5.290;2023-08-06T13:18:37;8.73;;;1.25;;
24325;SDS011;12448;45.532;5.290;2023-08-06T13:27:51;3.95;;;1.20;;
24325;SDS011;12448;45.532;5.290;2023-08-06T13:38:46;5.03;;;1.67;;
24325;SDS011;12448;45.532;5.290;2023-08-06T13:48:40;7.18;;;1.58;;
24325;SDS011;12448;45.532;5.290;2023-08-06T13:51:25;5.72;;;1.38;;
24325;SDS011;12448;45.532;5.290;2023-08-06T13:57:03;3.97;;;1.20;;
24325;SDS011;12448;45.532;5.290;2023-08-06T13:59:49;2.53;;;0.93;;
24325;SDS011;12448;45.532;5.290;2023-08-06T14:02:14;5.13;;;1.50;;
24325;SDS011;12448;45.532;5.290;2023-08-06T14:04:40;2.70;;;0.90;;
24325;SDS011;12448;45.532;5.290;2023-08-06T14:07:06;3.35;;;1.20;;
24325;SDS011;12448;45.532;5.290;2023-08-06T14:09:32;4.57;;;1.10;;
24325;SDS011;12448;45.532;5.290;2023-08-06T14:11:59;2.63;;;0.85;;
24325;SDS011;12448;45.532;5.290;2023-08-06T14:14:25;2.83;;;1.00;;
24325;SDS011;12448;45.532;5.290;2023-08-06T14:16:52;3.17;;;0.88;;
24325;SDS011;12448;45.532;5.290;2023-08-06T14:19:19;3.03;;;1.10;;
24325;SDS011;12448;45.532;5.290;2023-08-06T14:21:45;3.53;;;1.10;;
24325;SDS011;12448;45.532;5.290;2023-08-06T14:24:14;3.38;;;0.95;;
24325;SDS011;12448;45.532;5.290;2023-08-06T14:26:40;2.45;;;0.93;;
24325;SDS011;12448;45.532;5.290;2023-08-06T14:29:06;2.90;;;1.10;;
24325;SDS011;12448;45.532;5.290;2023-08-06T14:32:06;1.73;;;0.90;;
24325;SDS011;12448;45.532;5.290;2023-08-06T14:35:00;2.13;;;1.02;;
24325;SDS011;12448;45.532;5.290;2023-08-06T14:37:58;2.83;;;1.13;;
24325;SDS011;12448;45.532;5.290;2023-08-06T14:40:33;3.13;;;1.20;;
24325;SDS011;12448;45.532;5.290;2023-08-06T14:43:08;3.83;;;1.30;;
24325;SDS011;12448;45.532;5.290;2023-08-06T14:45:55;2.42;;;1.00;;
24325;SDS011;12448;45.532;5.290;2023-08-06T14:51:51;3.90;;;1.15;;
24325;SDS011;12448;45.532;5.290;2023-08-06T14:54:25;3.70;;;1.17;;
24325;SDS011;12448;45.532;5.290;2023-08-06T14:57:21;2.35;;;1.27;;
24325;SDS011;12448;45.532;5.290;2023-08-06T14:59:52;7.57;;;1.45;;
24325;SDS011;12448;45.532;5.290;2023-08-06T15:02:18;4.43;;;1.13;;
24325;SDS011;12448;45.532;5.290;2023-08-06T15:04:47;2.83;;;1.48;;
24325;SDS011;12448;45.532;5.290;2023-08-06T15:07:58;4.68;;;1.30;;
24325;SDS011;12448;45.532;5.290;2023-08-06T15:10:20;4.43;;;1.15;;
24325;SDS011;12448;45.532;5.290;2023-08-06T15:12:45;6.70;;;1.20;;
24325;SDS011;12448;45.532;5.290;2023-08-06T15:15:11;2.53;;;1.15;;
24325;SDS011;12448;45.532;5.290;2023-08-06T15:17:37;4.30;;;1.20;;
24325;SDS011;12448;45.532;5.290;2023-08-06T15:23:07;3.83;;;1.20;;
24325;SDS011;12448;45.532;5.290;2023-08-06T15:25:33;2.90;;;1.20;;
24325;SDS011;12448;45.532;5.290;2023-08-06T15:27:59;2.85;;;1.20;;
24325;SDS011;12448;45.532;5.290;2023-08-06T15:30:24;2.90;;;1.30;;
24325;SDS011;12448;45.532;5.290;2023-08-06T15:33:25;4.55;;;1.33;;
24325;SDS011;12448;45.532;5.290;2023-08-06T15:36:14;4.85;;;1.40;;
24325;SDS011;12448;45.532;5.290;2023-08-06T15:38:40;4.80;;;1.23;;